Hollywood, Pennsylvania
Current Conditions -  °F | °C
As of 4:54 AM on Friday 21 Nov 2014 (Local Time) from KPNE Reporting Station
Clear Clear  
Wind Chill: 19°   Ceiling: Unl
Heat Index: 29°   Visibility: 10mi
Dew Point:   Wind: 12mph
Humidity: 40%   Direction: 280°W
Pressure: 30.2"   Gusts: NA
Location:  40.1039°N, 75.1072°W
Report Text: KPNE 210954Z AUTO 28010KT 10SM CLR M02/M14 A3020 RMK AO2 SLP227 T10171139 TSNO
Loading
Personal Weather Stations






























Interactive Weather Map New forecast layout! Learn more

10-Day Weather Forecast

Advertisements
Track Severe Weather on mobile